createdAt,value
2019-02-23T00:01:05.794Z,52.83
2019-02-23T00:03:35.592Z,53.66
2019-02-23T00:06:03.854Z,53.93
2019-02-23T00:08:31.602Z,53.25
2019-02-23T00:10:59.406Z,53.11
2019-02-23T00:13:27.246Z,52.79
2019-02-23T00:15:55.312Z,53.24
2019-02-23T00:18:23.221Z,52.75
2019-02-23T00:20:51.234Z,52.75
2019-02-23T00:23:19.022Z,52.66
2019-02-23T00:25:47.089Z,52.99
2019-02-23T00:28:15.283Z,52.83
2019-02-23T00:30:43.545Z,52.85
2019-02-23T00:33:11.600Z,52.98
2019-02-23T00:35:39.538Z,52.43
2019-02-23T00:38:07.543Z,52.69
2019-02-23T00:40:35.557Z,51.87
2019-02-23T00:43:03.638Z,51.90
2019-02-23T00:45:31.466Z,52.16
2019-02-23T00:47:59.551Z,52.29
2019-02-23T00:50:27.531Z,52.02
2019-02-23T00:52:56.426Z,52.23
2019-02-23T00:55:24.348Z,51.89
2019-02-23T00:57:53.387Z,51.76
2019-02-23T01:00:21.451Z,52.32
2019-02-23T01:02:49.532Z,52.11
2019-02-23T01:05:17.667Z,52.14
2019-02-23T01:07:45.687Z,52.13
2019-02-23T01:10:13.791Z,51.61
2019-02-23T01:12:41.808Z,51.33
2019-02-23T01:15:10.431Z,51.82
2019-02-23T01:17:38.550Z,51.75
2019-02-23T01:20:08.703Z,53.37
2019-02-23T01:22:36.683Z,53.53
2019-02-23T01:25:04.577Z,52.15
2019-02-23T01:27:32.401Z,51.84
2019-02-23T01:30:00.574Z,51.46
2019-02-23T01:32:28.526Z,51.55
2019-02-23T01:34:56.475Z,50.93
2019-02-23T01:37:24.761Z,51.44
2019-02-23T01:39:52.465Z,52.42
2019-02-23T01:42:20.399Z,50.72
2019-02-23T01:44:48.462Z,50.55
2019-02-23T01:47:16.504Z,50.29
2019-02-23T01:49:44.458Z,50.66
2019-02-23T01:52:12.599Z,50.34
2019-02-23T01:54:40.594Z,50.61
2019-02-23T01:57:08.462Z,53.48
2019-02-23T01:59:36.262Z,50.70
2019-02-23T02:02:04.281Z,50.13
2019-02-23T02:04:32.203Z,53.23
2019-02-23T02:07:00.275Z,49.95
2019-02-23T02:09:28.336Z,49.33
2019-02-23T02:11:57.087Z,52.59
2019-02-23T02:14:25.205Z,50.48
2019-02-23T02:16:53.127Z,50.80
2019-02-23T02:19:21.040Z,51.26
2019-02-23T02:21:49.300Z,51.88
2019-02-23T02:24:17.276Z,50.37
2019-02-23T02:26:45.194Z,50.50
2019-02-23T02:29:13.023Z,51.36
2019-02-23T02:31:40.947Z,50.84
2019-02-23T02:34:13.901Z,50.70
2019-02-23T02:36:42.256Z,50.92
2019-02-23T02:39:11.571Z,51.00
2019-02-23T02:41:39.502Z,50.75
2019-02-23T02:44:07.287Z,51.46
2019-02-23T02:46:36.338Z,51.02
2019-02-23T02:49:04.340Z,49.94
2019-02-23T02:51:32.218Z,50.58
2019-02-23T02:54:00.375Z,51.38
2019-02-23T02:56:29.215Z,51.17
2019-02-23T02:58:57.350Z,50.75
2019-02-23T03:01:25.422Z,50.52
2019-02-23T03:03:53.286Z,50.62
2019-02-23T03:06:21.290Z,51.49
2019-02-23T03:08:49.150Z,52.49
2019-02-23T03:11:17.038Z,51.34
2019-02-23T03:13:44.913Z,51.79
2019-02-23T03:16:12.857Z,54.08
2019-02-23T03:18:40.850Z,54.76
2019-02-23T03:21:08.748Z,55.16
2019-02-23T03:23:36.659Z,56.03
2019-02-23T03:26:04.581Z,55.64
2019-02-23T03:28:32.523Z,54.48
2019-02-23T03:31:00.354Z,55.55
2019-02-23T03:33:28.435Z,54.99
2019-02-23T03:35:56.443Z,54.01
2019-02-23T03:38:24.678Z,53.61
2019-02-23T03:40:52.591Z,54.32
2019-02-23T03:43:20.717Z,54.26
2019-02-23T03:45:48.693Z,55.70
2019-02-23T03:48:17.487Z,57.32
2019-02-23T03:50:49.486Z,58.54
2019-02-23T03:53:16.586Z,58.40
2019-02-23T03:55:44.490Z,57.94
2019-02-23T03:58:12.547Z,56.91
2019-02-23T04:00:40.440Z,52.90
2019-02-23T04:03:08.682Z,53.04
2019-02-23T04:05:36.483Z,55.49
2019-02-23T04:08:05.447Z,56.05
2019-02-23T04:10:33.447Z,56.36
2019-02-23T04:13:01.607Z,57.57
2019-02-23T04:15:29.421Z,57.42
2019-02-23T04:17:57.551Z,56.91
2019-02-23T04:20:25.417Z,59.78
2019-02-23T04:22:53.330Z,57.35
2019-02-23T04:25:21.355Z,57.19
2019-02-23T04:27:49.224Z,58.25
2019-02-23T04:30:17.478Z,59.08
2019-02-23T04:32:45.367Z,59.44
2019-02-23T04:35:15.901Z,60.20
2019-02-23T04:37:43.965Z,59.42
2019-02-23T04:40:12.213Z,60.58
2019-02-23T04:42:40.052Z,61.54
2019-02-23T04:45:08.171Z,60.59
2019-02-23T04:47:36.263Z,60.47
2019-02-23T04:50:04.313Z,59.47
2019-02-23T04:52:32.288Z,60.29
2019-02-23T04:55:01.068Z,59.82
2019-02-23T04:57:28.954Z,61.99
2019-02-23T04:59:56.902Z,61.50
2019-02-23T05:02:26.697Z,60.87
2019-02-23T05:04:54.616Z,60.93
2019-02-23T05:07:22.638Z,61.06
2019-02-23T05:09:50.534Z,60.35
2019-02-23T05:12:18.648Z,61.14
2019-02-23T05:14:47.478Z,62.87
2019-02-23T05:17:15.473Z,64.01
2019-02-23T05:19:43.469Z,61.29
2019-02-23T05:22:11.596Z,63.76
2019-02-23T05:24:39.520Z,62.55
2019-02-23T05:27:07.580Z,62.48
2019-02-23T05:29:37.211Z,62.24
2019-02-23T05:32:05.125Z,62.59
2019-02-23T05:34:33.076Z,63.35
2019-02-23T05:37:00.848Z,63.63
2019-02-23T05:39:28.736Z,65.18
2019-02-23T05:41:56.678Z,63.44
2019-02-23T05:44:24.493Z,64.82
2019-02-23T05:46:52.415Z,63.49
2019-02-23T05:49:20.483Z,63.86
2019-02-23T05:51:48.308Z,64.50
2019-02-23T05:54:16.461Z,65.54
2019-02-23T05:56:44.398Z,65.80
2019-02-23T05:59:12.367Z,66.76
2019-02-23T06:01:40.320Z,65.37
2019-02-23T06:04:08.103Z,64.80
2019-02-23T06:06:38.689Z,63.95
2019-02-23T06:09:07.147Z,64.21
2019-02-23T06:11:35.212Z,63.55
2019-02-23T06:14:03.045Z,63.62
2019-02-23T06:16:30.929Z,64.05
2019-02-23T06:18:59.037Z,62.93
2019-02-23T06:21:27.799Z,62.90
2019-02-23T06:23:55.774Z,63.46
2019-02-23T06:26:23.813Z,63.24
2019-02-23T06:28:51.748Z,62.83
2019-02-23T06:31:19.784Z,61.38
2019-02-23T06:33:47.893Z,59.56
2019-02-23T06:36:15.918Z,60.61
2019-02-23T06:38:43.996Z,59.69
2019-02-23T06:41:12.057Z,55.93
2019-02-23T06:43:40.109Z,54.15
2019-02-23T06:46:08.178Z,54.91
2019-02-23T06:48:36.324Z,54.76
2019-02-23T06:51:04.241Z,54.62
2019-02-23T06:53:32.317Z,53.94
2019-02-23T06:56:00.171Z,53.30
2019-02-23T06:58:28.358Z,52.74
2019-02-23T07:00:56.329Z,50.58
2019-02-23T07:03:24.235Z,49.11
2019-02-23T07:05:51.941Z,48.39
2019-02-23T07:08:20.021Z,48.53
2019-02-23T07:10:48.076Z,50.02
2019-02-23T07:13:16.282Z,50.02
2019-02-23T07:15:44.286Z,49.74
2019-02-23T07:18:12.299Z,49.47
2019-02-23T07:20:44.526Z,49.25
2019-02-23T07:23:12.005Z,49.70
2019-02-23T07:25:39.796Z,47.82
2019-02-23T07:28:07.929Z,47.36
2019-02-23T07:30:35.828Z,43.91
2019-02-23T07:33:03.885Z,44.14
2019-02-23T07:35:31.782Z,43.84
2019-02-23T07:37:59.766Z,43.30
2019-02-23T07:40:27.591Z,44.38
2019-02-23T07:42:55.438Z,44.84
2019-02-23T07:45:23.352Z,45.47
2019-02-23T07:47:51.492Z,45.42
2019-02-23T07:50:19.608Z,45.13
2019-02-23T07:52:47.572Z,44.61
2019-02-23T07:55:15.446Z,45.05
2019-02-23T07:57:43.412Z,45.44
2019-02-23T08:00:11.243Z,45.51
2019-02-23T08:02:39.239Z,44.18
2019-02-23T08:05:07.648Z,42.74
2019-02-23T08:07:35.583Z,42.37
2019-02-23T08:10:03.683Z,43.92
2019-02-23T08:12:32.750Z,43.02
2019-02-23T08:15:00.528Z,43.47
2019-02-23T08:17:28.393Z,43.91
2019-02-23T08:19:56.197Z,41.86
2019-02-23T08:22:24.125Z,41.75
2019-02-23T08:24:52.181Z,41.27
2019-02-23T08:27:20.353Z,40.46
2019-02-23T08:29:48.365Z,42.62
2019-02-23T08:32:17.228Z,43.31
2019-02-23T08:34:45.184Z,41.20
2019-02-23T08:37:13.041Z,40.34
2019-02-23T08:39:40.902Z,40.08
2019-02-23T08:42:08.776Z,39.39
2019-02-23T08:44:38.571Z,40.05
2019-02-23T08:47:06.774Z,41.95
2019-02-23T08:49:34.718Z,42.52
2019-02-23T08:52:02.700Z,41.21
2019-02-23T08:54:31.303Z,40.02
2019-02-23T08:56:59.153Z,39.16
2019-02-23T08:59:27.174Z,38.92
2019-02-23T09:01:55.183Z,38.64
2019-02-23T09:04:24.987Z,38.53
2019-02-23T09:06:52.766Z,38.49
2019-02-23T09:09:20.929Z,39.39
2019-02-23T09:11:48.828Z,38.12
2019-02-23T09:14:16.654Z,37.13
2019-02-23T09:16:44.755Z,35.16
2019-02-23T09:19:12.765Z,36.22
2019-02-23T09:21:40.754Z,34.19
2019-02-23T09:24:08.663Z,35.39
2019-02-23T09:26:36.628Z,33.72
2019-02-23T09:29:04.728Z,33.07
2019-02-23T09:31:32.799Z,31.45
2019-02-23T09:34:02.196Z,33.17
2019-02-23T09:36:30.172Z,33.17
2019-02-23T09:38:58.029Z,35.17
2019-02-23T09:41:27.034Z,32.18
2019-02-23T09:43:55.225Z,30.96
2019-02-23T09:46:23.218Z,32.54
2019-02-23T09:48:51.171Z,30.46
2019-02-23T09:51:19.147Z,29.34
2019-02-23T09:53:47.069Z,28.81
2019-02-23T09:56:14.873Z,30.43
2019-02-23T09:58:42.847Z,31.29
2019-02-23T10:01:10.800Z,31.81
2019-02-23T10:03:38.803Z,30.63
2019-02-23T10:06:06.861Z,31.40
2019-02-23T10:08:35.184Z,31.81
2019-02-23T10:11:03.097Z,29.07
2019-02-23T10:13:31.255Z,31.28
2019-02-23T10:15:59.137Z,29.43
2019-02-23T10:18:27.196Z,30.34
2019-02-23T10:20:55.081Z,30.78
2019-02-23T10:23:23.147Z,31.49
2019-02-23T10:25:52.734Z,30.97
2019-02-23T10:28:20.845Z,31.39
2019-02-23T10:30:48.863Z,31.97
2019-02-23T10:33:17.059Z,32.25
2019-02-23T10:35:44.727Z,31.30
2019-02-23T10:38:12.847Z,31.46
2019-02-23T10:40:40.832Z,32.44
2019-02-23T10:43:08.760Z,30.50
2019-02-23T10:45:36.757Z,30.41
2019-02-23T10:48:04.942Z,29.72
2019-02-23T10:50:33.045Z,29.38
2019-02-23T10:53:01.094Z,29.69
2019-02-23T10:55:29.132Z,31.97
2019-02-23T10:57:57.117Z,29.84
2019-02-23T11:00:25.280Z,29.77
2019-02-23T11:02:53.398Z,29.73
2019-02-23T11:05:21.427Z,30.53
2019-02-23T11:07:49.380Z,30.86
2019-02-23T11:10:18.419Z,28.87
2019-02-23T11:12:46.447Z,30.17
2019-02-23T11:15:14.835Z,29.45
2019-02-23T11:17:43.234Z,28.93
2019-02-23T11:20:11.518Z,28.32
2019-02-23T11:22:39.516Z,29.24
2019-02-23T11:25:07.828Z,28.68
2019-02-23T11:27:35.989Z,29.49
2019-02-23T11:30:04.305Z,27.99
2019-02-23T11:32:32.234Z,28.24
2019-02-23T11:35:00.353Z,27.88
2019-02-23T11:37:28.297Z,29.38
2019-02-23T11:39:56.250Z,28.03
2019-02-23T11:42:24.306Z,28.69
2019-02-23T11:44:52.197Z,28.32
2019-02-23T11:47:20.217Z,28.48
2019-02-23T11:49:48.375Z,27.61
2019-02-23T11:52:16.493Z,28.56
2019-02-23T11:54:44.521Z,29.35
2019-02-23T11:57:12.773Z,29.14
2019-02-23T11:59:40.587Z,27.87
2019-02-23T12:02:08.645Z,27.38
2019-02-23T12:04:36.746Z,28.65
2019-02-23T12:07:04.820Z,28.97
2019-02-23T12:09:32.677Z,30.18
2019-02-23T12:12:00.559Z,29.28
2019-02-23T12:14:28.695Z,29.16
2019-02-23T12:16:56.715Z,28.72
2019-02-23T12:19:24.819Z,27.09
2019-02-23T12:21:52.764Z,27.88
2019-02-23T12:24:20.687Z,29.66
2019-02-23T12:26:48.580Z,28.42
2019-02-23T12:29:16.710Z,28.72
2019-02-23T12:31:44.742Z,28.11
2019-02-23T12:34:12.767Z,28.51
2019-02-23T12:36:40.666Z,28.51
2019-02-23T12:39:08.594Z,30.02
2019-02-23T12:41:37.849Z,30.21
2019-02-23T12:44:05.863Z,29.66
2019-02-23T12:46:33.965Z,29.63
2019-02-23T12:49:02.107Z,29.23
2019-02-23T12:51:30.130Z,28.18
2019-02-23T12:53:58.245Z,29.41
2019-02-23T12:56:26.237Z,31.10
2019-02-23T12:58:54.307Z,29.13
2019-02-23T13:01:22.262Z,28.83
2019-02-23T13:03:50.394Z,29.03
2019-02-23T13:06:18.417Z,29.52
2019-02-23T13:09:11.556Z,30.25
2019-02-23T13:11:39.514Z,30.92
2019-02-23T13:14:44.812Z,30.16
2019-02-23T13:17:28.632Z,29.46
2019-02-23T13:20:49.968Z,27.95
2019-02-23T13:23:51.919Z,29.78
2019-02-23T13:26:57.799Z,27.73
2019-02-23T13:30:06.658Z,29.42
2019-02-23T13:33:00.431Z,29.29
2019-02-23T13:36:12.709Z,29.98
2019-02-23T13:39:11.709Z,30.45
2019-02-23T13:42:11.506Z,31.00
2019-02-23T13:45:39.318Z,32.07
2019-02-23T13:48:48.763Z,32.11
2019-02-23T13:52:04.428Z,32.52
2019-02-23T13:55:00.557Z,30.85
2019-02-23T13:58:14.318Z,30.58
2019-02-23T14:01:05.013Z,30.78
2019-02-23T14:04:16.308Z,31.65
2019-02-23T14:07:17.147Z,31.57
2019-02-23T14:10:44.593Z,31.68
2019-02-23T14:14:02.968Z,30.09
2019-02-23T14:16:46.677Z,30.32
2019-02-23T14:19:54.510Z,29.33
2019-02-23T14:22:54.409Z,27.41
2019-02-23T14:25:49.017Z,28.25
2019-02-23T14:29:10.338Z,28.34
2019-02-23T14:32:21.411Z,26.27
2019-02-23T14:35:34.120Z,26.49
2019-02-23T14:38:26.799Z,27.62
2019-02-23T14:41:35.784Z,26.35
2019-02-23T14:44:47.990Z,28.27
2019-02-23T14:47:50.602Z,27.52
2019-02-23T14:50:31.644Z,28.45
2019-02-23T14:53:35.998Z,30.36
2019-02-23T14:56:36.731Z,30.21
2019-02-23T14:59:30.204Z,30.18
2019-02-23T15:02:21.705Z,31.09
2019-02-23T15:05:22.128Z,31.14
2019-02-23T15:08:43.683Z,32.04
2019-02-23T15:11:55.252Z,31.87
2019-02-23T15:15:02.160Z,32.14
2019-02-23T15:18:23.682Z,32.55
2019-02-23T15:21:12.116Z,32.77
2019-02-23T15:24:18.506Z,33.60
2019-02-23T15:27:31.235Z,33.98
2019-02-23T15:30:53.061Z,34.48
2019-02-23T15:34:26.863Z,35.86
2019-02-23T15:37:06.808Z,35.24
2019-02-23T15:40:22.258Z,35.20
2019-02-23T15:43:43.960Z,35.03
2019-02-23T15:47:08.779Z,35.70
2019-02-23T15:49:36.859Z,35.17
2019-02-23T15:52:05.939Z,35.52
2019-02-23T15:54:34.061Z,35.21
2019-02-23T15:57:03.074Z,35.84
2019-02-23T15:59:30.854Z,35.78
2019-02-23T16:01:59.838Z,35.46
2019-02-23T16:04:27.732Z,36.12
2019-02-23T16:06:55.811Z,36.54
2019-02-23T16:09:23.878Z,36.50
2019-02-23T16:11:51.819Z,36.32
2019-02-23T16:14:19.778Z,37.13
2019-02-23T16:16:47.824Z,37.15
2019-02-23T16:19:15.764Z,37.36
2019-02-23T16:21:43.789Z,37.44
2019-02-23T16:24:11.755Z,37.33
2019-02-23T16:26:40.247Z,37.14
2019-02-23T16:29:08.108Z,37.07
2019-02-23T16:31:35.983Z,37.64
2019-02-23T16:34:07.083Z,37.65
2019-02-23T16:36:33.716Z,38.01
2019-02-23T16:39:01.651Z,38.06
2019-02-23T16:41:31.516Z,38.34
2019-02-23T16:43:59.711Z,38.44
2019-02-23T16:46:27.735Z,39.22
2019-02-23T16:48:56.232Z,40.16
2019-02-23T16:51:24.504Z,39.75
2019-02-23T16:53:52.381Z,40.05
2019-02-23T16:56:20.437Z,40.35
2019-02-23T16:58:48.381Z,40.36
2019-02-23T17:01:16.354Z,40.59
2019-02-23T17:03:44.390Z,39.77
2019-02-23T17:06:12.310Z,40.08
2019-02-23T17:08:40.451Z,40.03
2019-02-23T17:11:08.272Z,40.99
2019-02-23T17:13:38.829Z,41.41
2019-02-23T17:16:06.603Z,41.65
2019-02-23T17:18:34.465Z,42.02
2019-02-23T17:21:02.467Z,42.48
2019-02-23T17:23:31.514Z,42.47
2019-02-23T17:26:04.311Z,43.19
2019-02-23T17:28:29.460Z,43.00
2019-02-23T17:30:57.438Z,43.71
2019-02-23T17:33:27.872Z,43.99
2019-02-23T17:35:55.543Z,43.25
2019-02-23T17:38:23.899Z,43.85
2019-02-23T17:40:51.783Z,45.38
2019-02-23T17:43:19.865Z,45.07
2019-02-23T17:45:47.686Z,45.04
2019-02-23T17:48:15.759Z,45.88
2019-02-23T17:50:43.977Z,46.27
2019-02-23T17:53:11.965Z,45.80
2019-02-23T17:55:40.152Z,46.31
2019-02-23T17:58:08.169Z,46.32
2019-02-23T18:00:36.153Z,46.18
2019-02-23T18:03:04.134Z,47.57
2019-02-23T18:05:31.929Z,48.15
2019-02-23T18:07:59.815Z,47.82
2019-02-23T18:10:27.911Z,46.94
2019-02-23T18:12:55.944Z,47.05
2019-02-23T18:15:24.069Z,47.63
2019-02-23T18:17:51.915Z,48.15
2019-02-23T18:20:19.995Z,48.87
2019-02-23T18:22:49.105Z,49.54
2019-02-23T18:25:17.167Z,50.63
2019-02-23T18:27:45.179Z,50.00
2019-02-23T18:30:14.234Z,50.31
2019-02-23T18:32:42.413Z,50.71
2019-02-23T18:35:12.007Z,51.80
2019-02-23T18:37:39.767Z,52.10
2019-02-23T18:40:08.124Z,51.17
2019-02-23T18:42:36.537Z,51.89
2019-02-23T18:45:04.413Z,52.61
2019-02-23T18:47:32.761Z,52.35
2019-02-23T18:50:01.243Z,51.76
2019-02-23T18:52:29.332Z,52.44
2019-02-23T18:54:57.390Z,52.97
2019-02-23T18:57:25.514Z,53.30
2019-02-23T18:59:53.334Z,53.97
2019-02-23T19:02:21.352Z,53.43
2019-02-23T19:04:49.436Z,53.87
2019-02-23T19:07:19.367Z,53.77
2019-02-23T19:09:47.544Z,53.73
2019-02-23T19:12:15.404Z,54.54
2019-02-23T19:14:43.397Z,54.30
2019-02-23T19:17:11.502Z,54.95
2019-02-23T19:19:39.582Z,55.02
2019-02-23T19:22:08.282Z,55.39
2019-02-23T19:24:36.332Z,56.05
2019-02-23T19:27:04.310Z,56.79
2019-02-23T19:29:32.105Z,56.55
2019-02-23T19:32:00.160Z,57.53
2019-02-23T19:34:28.095Z,57.12
2019-02-23T19:36:56.372Z,56.45
2019-02-23T19:39:25.798Z,56.95
2019-02-23T19:41:54.106Z,57.12
2019-02-23T19:44:22.408Z,56.70
2019-02-23T19:46:54.858Z,57.58
2019-02-23T19:49:23.035Z,58.02
2019-02-23T19:51:51.208Z,58.16
2019-02-23T19:54:19.107Z,57.39
2019-02-23T19:56:47.186Z,58.28
2019-02-23T19:59:15.946Z,58.12
2019-02-23T20:01:43.948Z,57.35
2019-02-23T20:04:11.704Z,57.74
2019-02-23T20:06:39.751Z,56.64
2019-02-23T20:09:07.660Z,57.19
2019-02-23T20:11:37.320Z,58.00
2019-02-23T20:14:05.195Z,60.04
2019-02-23T20:16:33.169Z,59.30
2019-02-23T20:19:01.035Z,57.52
2019-02-23T20:21:29.099Z,58.68
2019-02-23T20:23:56.948Z,57.99
2019-02-23T20:26:25.139Z,57.04
2019-02-23T20:28:53.047Z,56.90
2019-02-23T20:31:21.079Z,57.91
2019-02-23T20:33:49.229Z,57.86
2019-02-23T20:36:17.176Z,58.57
2019-02-23T20:38:45.191Z,59.94
2019-02-23T20:41:13.086Z,60.29
2019-02-23T20:43:40.924Z,61.13
2019-02-23T20:46:08.830Z,59.65
2019-02-23T20:48:36.612Z,60.78
2019-02-23T20:51:04.531Z,59.76
2019-02-23T20:53:32.714Z,60.60
2019-02-23T20:56:00.789Z,60.72
2019-02-23T20:58:28.648Z,60.76
2019-02-23T21:00:56.713Z,61.00
2019-02-23T21:03:24.620Z,61.99
2019-02-23T21:05:52.669Z,61.13
2019-02-23T21:08:20.758Z,60.72
2019-02-23T21:10:48.606Z,60.92
2019-02-23T21:13:16.503Z,59.60
2019-02-23T21:15:44.432Z,60.41
2019-02-23T21:18:12.330Z,62.37
2019-02-23T21:20:40.389Z,62.05
2019-02-23T21:23:08.279Z,61.73
2019-02-23T21:25:36.451Z,61.22
2019-02-23T21:28:04.583Z,61.43
2019-02-23T21:30:32.567Z,62.71
2019-02-23T21:33:00.557Z,62.25
2019-02-23T21:35:28.303Z,62.32
2019-02-23T21:37:56.275Z,62.75
2019-02-23T21:40:24.523Z,64.47
2019-02-23T21:42:52.446Z,63.73
2019-02-23T21:45:20.446Z,62.35
2019-02-23T21:47:48.628Z,63.58
2019-02-23T21:50:16.581Z,62.78
2019-02-23T21:52:44.869Z,64.32
2019-02-23T21:55:13.160Z,63.95
2019-02-23T21:57:41.116Z,64.28
2019-02-23T22:00:09.116Z,63.49
2019-02-23T22:02:37.516Z,64.43
2019-02-23T22:05:11.953Z,63.30
2019-02-23T22:07:35.581Z,63.94
2019-02-23T22:10:03.572Z,63.75
2019-02-23T22:12:31.522Z,62.87
2019-02-23T22:14:59.135Z,64.07
2019-02-23T22:17:27.065Z,63.44
2019-02-23T22:19:54.988Z,62.94
2019-02-23T22:22:24.086Z,63.84
2019-02-23T22:24:51.888Z,62.94
2019-02-23T22:27:20.042Z,63.36
2019-02-23T22:29:47.909Z,64.68
2019-02-23T22:32:16.021Z,63.81
2019-02-23T22:34:44.053Z,63.62
2019-02-23T22:37:11.995Z,63.80
2019-02-23T22:39:39.875Z,63.72
2019-02-23T22:42:07.931Z,64.57
2019-02-23T22:44:37.355Z,64.80
2019-02-23T22:47:05.374Z,64.98
2019-02-23T22:49:33.328Z,65.13
2019-02-23T22:52:01.182Z,64.61
2019-02-23T22:54:29.361Z,64.21
2019-02-23T22:56:57.417Z,65.00
2019-02-23T22:59:25.302Z,65.45
2019-02-23T23:01:53.808Z,65.71
2019-02-23T23:04:21.758Z,66.14
2019-02-23T23:06:49.768Z,66.03
2019-02-23T23:09:18.885Z,65.98
2019-02-23T23:11:46.831Z,64.96
2019-02-23T23:14:14.834Z,65.42
2019-02-23T23:16:42.869Z,65.81
2019-02-23T23:19:11.890Z,66.09
2019-02-23T23:21:40.068Z,66.24
2019-02-23T23:24:08.133Z,66.30
2019-02-23T23:26:37.054Z,66.52
2019-02-23T23:29:05.107Z,66.75
2019-02-23T23:31:34.278Z,67.08
2019-02-23T23:34:02.121Z,67.39
2019-02-23T23:36:29.935Z,67.66
2019-02-23T23:38:57.798Z,66.53
2019-02-23T23:41:25.872Z,66.23
2019-02-23T23:43:53.795Z,67.06
2019-02-23T23:46:21.821Z,67.40
2019-02-23T23:48:49.687Z,67.46
2019-02-23T23:51:17.724Z,68.73
2019-02-23T23:53:45.515Z,68.22
2019-02-23T23:56:13.559Z,67.46
2019-02-23T23:58:41.485Z,67.73
